createdAt,value
2019-01-12T00:01:35.934Z,5.872498
2019-01-12T00:06:59.599Z,5.842285
2019-01-12T00:12:23.942Z,5.802002
2019-01-12T00:17:48.440Z,5.731506
2019-01-12T00:23:12.798Z,5.671082
2019-01-12T00:28:36.907Z,5.661011
2019-01-12T00:34:00.747Z,5.65094
2019-01-12T00:39:23.736Z,5.671082
2019-01-12T00:44:46.638Z,5.65094
2019-01-12T00:50:10.974Z,5.661011
2019-01-12T00:55:34.708Z,5.671082
2019-01-12T01:00:58.817Z,5.671082
2019-01-12T01:06:22.362Z,5.671082
2019-01-12T01:11:47.501Z,5.65094
2019-01-12T01:17:10.212Z,5.65094
2019-01-12T01:22:33.335Z,5.600586
2019-01-12T01:27:56.193Z,5.590515
2019-01-12T01:33:19.241Z,5.560303
2019-01-12T01:38:42.770Z,5.560303
2019-01-12T01:44:06.428Z,5.550232
2019-01-12T01:49:31.171Z,5.509949
2019-01-12T01:54:54.014Z,5.479736
2019-01-12T02:00:19.641Z,5.449524
2019-01-12T02:05:42.366Z,5.439453
2019-01-12T02:11:09.063Z,5.439453
2019-01-12T02:16:34.104Z,5.419312
2019-01-12T02:21:57.432Z,5.409241
2019-01-12T02:27:20.254Z,5.39917
2019-01-12T02:32:43.618Z,5.379028
2019-01-12T02:38:06.508Z,5.409241
2019-01-12T02:43:30.725Z,5.39917
2019-01-12T02:48:53.379Z,5.379028
2019-01-12T02:54:16.120Z,5.379028
2019-01-12T02:59:38.836Z,5.39917
2019-01-12T03:05:10.408Z,5.368958
2019-01-12T03:10:33.364Z,5.348816
2019-01-12T03:15:57.169Z,5.368958
2019-01-12T03:21:19.854Z,5.348816
2019-01-12T03:26:43.618Z,5.368958
2019-01-12T03:32:06.413Z,5.409241
2019-01-12T03:37:29.288Z,5.379028
2019-01-12T03:42:52.154Z,5.368958
2019-01-12T03:48:14.933Z,5.368958
2019-01-12T03:53:48.847Z,5.368958
2019-01-12T03:59:13.456Z,5.368958
2019-01-12T04:04:37.998Z,5.348816
2019-01-12T04:10:00.093Z,5.348816
2019-01-12T04:15:22.999Z,5.328674
2019-01-12T04:20:56.641Z,5.298462
2019-01-12T04:26:30.795Z,5.318604
2019-01-12T04:31:54.894Z,5.348816
2019-01-12T04:37:17.609Z,5.328674
2019-01-12T04:42:40.297Z,5.368958
2019-01-12T04:48:03.074Z,5.368958
2019-01-12T04:53:26.170Z,5.409241
2019-01-12T04:58:48.867Z,5.379028
2019-01-12T05:04:12.655Z,5.328674
2019-01-12T05:09:35.233Z,5.298462
2019-01-12T05:14:58.882Z,5.258179
2019-01-12T05:20:22.505Z,5.238037
2019-01-12T05:25:49.000Z,5.1474
2019-01-12T05:31:08.555Z,5.137329
2019-01-12T05:36:42.238Z,5.137329
2019-01-12T05:42:14.741Z,5.1474
2019-01-12T05:47:37.661Z,5.187683
2019-01-12T05:53:03.623Z,5.167542
2019-01-12T05:58:27.051Z,5.167542
2019-01-12T06:03:50.486Z,5.117188
2019-01-12T06:09:14.814Z,5.137329
2019-01-12T06:14:47.279Z,5.046692
2019-01-12T06:20:21.173Z,5.046692
2019-01-12T06:25:44.586Z,4.956055
2019-01-12T06:31:16.973Z,4.865417
2019-01-12T06:36:50.285Z,4.804993
2019-01-12T06:42:13.361Z,4.825134
2019-01-12T06:47:36.167Z,4.855347
2019-01-12T06:53:08.724Z,4.794922
2019-01-12T06:58:42.524Z,4.825134
2019-01-12T07:04:05.419Z,4.804993
2019-01-12T07:09:38.024Z,4.77478
2019-01-12T07:15:11.204Z,4.794922
2019-01-12T07:20:42.140Z,4.825134
2019-01-12T07:26:17.475Z,4.804993
2019-01-12T07:31:46.710Z,4.77478
2019-01-12T07:37:18.611Z,4.855347
2019-01-12T07:42:52.505Z,4.825134
2019-01-12T07:48:24.583Z,4.855347
2019-01-12T07:53:56.642Z,4.825134
2019-01-12T07:59:28.101Z,4.77478
2019-01-12T08:05:03.334Z,4.724426
2019-01-12T08:10:35.364Z,4.744568
2019-01-12T08:15:58.888Z,4.77478
2019-01-12T08:21:21.642Z,4.77478
2019-01-12T08:26:43.562Z,4.77478
2019-01-12T08:32:17.448Z,4.794922
2019-01-12T08:37:52.423Z,4.855347
2019-01-12T08:43:19.349Z,4.89563
2019-01-12T08:48:52.608Z,4.986267
2019-01-12T08:54:26.841Z,5.016479
2019-01-12T09:00:00.375Z,4.966125
2019-01-12T09:05:26.555Z,5.046692
2019-01-12T09:10:58.893Z,5.107117
2019-01-12T09:16:30.441Z,5.1474
2019-01-12T09:22:03.727Z,5.217896
2019-01-12T09:27:37.208Z,5.288391
2019-01-12T09:33:09.910Z,5.379028
2019-01-12T09:38:48.808Z,5.39917
2019-01-12T09:44:14.759Z,5.419312
2019-01-12T09:49:48.218Z,5.379028
2019-01-12T09:55:20.921Z,5.39917
2019-01-12T10:00:45.097Z,5.379028
2019-01-12T10:06:20.303Z,5.419312
2019-01-12T10:11:44.425Z,5.419312
2019-01-12T10:17:12.578Z,5.328674
2019-01-12T10:22:35.543Z,5.258179
2019-01-12T10:28:09.665Z,5.197754
2019-01-12T10:33:43.969Z,5.187683
2019-01-12T10:39:08.192Z,5.137329
2019-01-12T10:44:41.565Z,5.117188
2019-01-12T10:50:06.963Z,5.107117
2019-01-12T10:55:33.674Z,5.086975
2019-01-12T11:01:05.024Z,5.107117
2019-01-12T11:06:28.940Z,5.117188
2019-01-12T11:11:51.779Z,5.117188
2019-01-12T11:17:27.027Z,5.117188
2019-01-12T11:22:50.736Z,5.107117
2019-01-12T11:28:24.170Z,5.137329
2019-01-12T11:33:56.716Z,5.167542
2019-01-12T11:39:30.373Z,5.167542
2019-01-12T11:45:03.840Z,5.197754
2019-01-12T11:50:36.646Z,5.26825
2019-01-12T11:56:16.022Z,5.298462
2019-01-12T12:01:48.398Z,5.328674
2019-01-12T12:07:11.843Z,5.379028
2019-01-12T12:12:44.391Z,5.469666
2019-01-12T12:18:07.406Z,5.52002
2019-01-12T12:23:32.047Z,5.560303
2019-01-12T12:29:06.100Z,5.580444
2019-01-12T12:34:38.815Z,5.600586
2019-01-12T12:40:01.991Z,5.630798
2019-01-12T12:45:35.508Z,5.65094
2019-01-12T12:50:58.761Z,5.691223
2019-01-12T12:56:33.043Z,5.671082
2019-01-12T13:02:07.174Z,5.691223
2019-01-12T13:07:39.629Z,5.751648
2019-01-12T13:13:15.155Z,5.78186
2019-01-12T13:18:49.364Z,5.842285
2019-01-12T13:24:21.554Z,5.90271
2019-01-12T13:29:54.734Z,5.922852
2019-01-12T13:35:27.372Z,6.013489
2019-01-12T13:41:03.464Z,6.013489
2019-01-12T13:46:38.263Z,5.993347
2019-01-12T13:52:02.530Z,5.993347
2019-01-12T13:57:26.001Z,5.993347
2019-01-12T14:02:48.749Z,5.983276
2019-01-12T14:08:12.065Z,5.983276
2019-01-12T14:13:35.454Z,6.013489
2019-01-12T14:19:08.704Z,6.02356
2019-01-12T14:24:43.119Z,6.03363
2019-01-12T14:30:17.397Z,6.063843
2019-01-12T14:35:49.327Z,6.104126
2019-01-12T14:41:18.925Z,6.164551
2019-01-12T14:46:52.956Z,6.194763
2019-01-12T14:52:24.494Z,6.235046
2019-01-12T14:58:01.861Z,6.265259
2019-01-12T15:03:20.066Z,6.345825
2019-01-12T15:08:54.006Z,6.355896
2019-01-12T15:14:18.856Z,6.376038
2019-01-12T15:19:41.579Z,6.396179
2019-01-12T15:25:04.567Z,6.416321
2019-01-12T15:30:27.506Z,6.416321
2019-01-12T15:36:01.426Z,6.426392
2019-01-12T15:41:33.389Z,6.53717
2019-01-12T15:47:06.882Z,6.547241
2019-01-12T15:52:41.265Z,6.597595
2019-01-12T15:58:16.217Z,6.506958
2019-01-12T16:03:37.669Z,6.456604
2019-01-12T16:09:01.581Z,6.496887
2019-01-12T16:14:26.005Z,6.496887
2019-01-12T16:20:01.566Z,6.426392
2019-01-12T16:25:26.339Z,6.456604
2019-01-12T16:30:58.799Z,6.476746
2019-01-12T16:36:29.368Z,6.416321
2019-01-12T16:41:53.181Z,6.496887
2019-01-12T16:47:25.695Z,6.496887
2019-01-12T16:52:49.807Z,6.5271
2019-01-12T16:58:30.136Z,6.426392
2019-01-12T17:03:59.264Z,6.446533
2019-01-12T17:09:23.471Z,6.456604
2019-01-12T17:14:48.373Z,6.476746
2019-01-12T17:20:22.046Z,6.496887
2019-01-12T17:25:45.926Z,6.496887
2019-01-12T17:31:19.183Z,6.396179
2019-01-12T17:36:58.787Z,6.5271
2019-01-12T17:42:18.887Z,6.506958
2019-01-12T17:47:42.521Z,6.396179
2019-01-12T17:53:06.130Z,6.295471
2019-01-12T17:58:29.509Z,6.295471
2019-01-12T18:09:45.845Z,6.204834
2019-01-12T18:15:19.058Z,6.164551
2019-01-12T18:20:51.683Z,6.144409
2019-01-12T18:26:23.775Z,6.063843
2019-01-12T18:31:54.743Z,5.932922
2019-01-12T18:43:21.804Z,6.194763
2019-01-12T18:48:58.043Z,6.134338
2019-01-12T18:54:30.507Z,6.03363
2019-01-12T18:59:53.790Z,6.063843
2019-01-12T19:05:17.052Z,6.013489
2019-01-12T19:10:48.982Z,6.083984
2019-01-12T19:16:21.307Z,5.953064
2019-01-12T19:21:56.523Z,5.872498
2019-01-12T19:33:27.857Z,5.90271
2019-01-12T19:39:00.781Z,5.832214
2019-01-12T19:44:34.372Z,5.78186
2019-01-12T19:50:08.695Z,5.90271
2019-01-12T19:55:41.450Z,5.812073
2019-01-12T20:01:16.401Z,5.741577
2019-01-12T20:06:40.441Z,5.691223
2019-01-12T20:12:03.196Z,5.661011
2019-01-12T20:17:35.928Z,5.741577
2019-01-12T20:23:08.941Z,5.731506
2019-01-12T20:28:42.487Z,5.802002
2019-01-12T20:34:15.730Z,5.751648
2019-01-12T20:39:41.437Z,5.731506
2019-01-12T20:51:26.029Z,5.852356
2019-01-12T20:56:57.585Z,5.872498
2019-01-12T21:02:20.794Z,5.90271
2019-01-12T21:07:44.205Z,5.90271
2019-01-12T21:13:08.754Z,5.882568
2019-01-12T21:18:41.661Z,5.932922
2019-01-12T21:24:14.672Z,5.983276
2019-01-12T21:29:49.257Z,5.953064
2019-01-12T21:35:12.228Z,5.963135
2019-01-12T21:40:35.085Z,5.983276
2019-01-12T21:45:58.233Z,6.02356
2019-01-12T21:51:22.245Z,6.083984
2019-01-12T21:56:44.919Z,6.134338
2019-01-12T22:02:17.222Z,6.164551
2019-01-12T22:07:50.807Z,6.204834
2019-01-12T22:13:23.250Z,6.214905
2019-01-12T22:18:56.988Z,6.265259
2019-01-12T22:24:20.581Z,6.295471
2019-01-12T22:29:52.806Z,6.245117
2019-01-12T22:35:17.191Z,6.265259
2019-01-12T22:40:40.030Z,6.345825
2019-01-12T22:46:12.442Z,6.376038
2019-01-12T22:51:35.536Z,6.376038
2019-01-12T22:56:58.243Z,6.315613
2019-01-12T23:02:31.483Z,6.245117
2019-01-12T23:07:56.292Z,6.325684
2019-01-12T23:13:21.372Z,6.295471
2019-01-12T23:18:44.163Z,6.27533
2019-01-12T23:24:09.503Z,6.325684
2019-01-12T23:29:41.534Z,6.265259
2019-01-12T23:35:05.107Z,6.235046
2019-01-12T23:40:36.535Z,6.214905
2019-01-12T23:46:00.063Z,6.245117
2019-01-12T23:51:24.338Z,6.265259
2019-01-12T23:56:47.469Z,6.174622
